sensor_id;sensor_type;location;lat;lon;timestamp;P1;durP1;ratioP1;P2;durP2;ratioP2
12385;SDS011;6257;57.634;18.310;2023-04-06T00:01:17;2.60;;;1.97;;
12385;SDS011;6257;57.634;18.310;2023-04-06T00:03:44;1.67;;;1.50;;
12385;SDS011;6257;57.634;18.310;2023-04-06T00:06:11;2.30;;;1.90;;
12385;SDS011;6257;57.634;18.310;2023-04-06T00:08:38;3.17;;;1.70;;
12385;SDS011;6257;57.634;18.310;2023-04-06T00:11:06;2.50;;;1.90;;
12385;SDS011;6257;57.634;18.310;2023-04-06T00:13:35;2.37;;;2.00;;
12385;SDS011;6257;57.634;18.310;2023-04-06T00:16:02;2.40;;;2.00;;
12385;SDS011;6257;57.634;18.310;2023-04-06T00:18:30;3.33;;;2.10;;
12385;SDS011;6257;57.634;18.310;2023-04-06T00:20:57;2.40;;;1.97;;
12385;SDS011;6257;57.634;18.310;2023-04-06T00:23:24;1.80;;;1.70;;
12385;SDS011;6257;57.634;18.310;2023-04-06T00:25:52;2.20;;;2.00;;
12385;SDS011;6257;57.634;18.310;2023-04-06T00:28:19;2.13;;;1.93;;
12385;SDS011;6257;57.634;18.310;2023-04-06T00:30:52;2.27;;;1.97;;
12385;SDS011;6257;57.634;18.310;2023-04-06T00:33:20;2.40;;;2.20;;
12385;SDS011;6257;57.634;18.310;2023-04-06T00:35:48;2.30;;;2.07;;
12385;SDS011;6257;57.634;18.310;2023-04-06T00:38:15;2.90;;;2.37;;
12385;SDS011;6257;57.634;18.310;2023-04-06T00:40:43;2.67;;;2.30;;
12385;SDS011;6257;57.634;18.310;2023-04-06T00:43:10;2.83;;;2.53;;
12385;SDS011;6257;57.634;18.310;2023-04-06T00:45:38;2.77;;;2.57;;
12385;SDS011;6257;57.634;18.310;2023-04-06T00:48:07;2.33;;;2.13;;
12385;SDS011;6257;57.634;18.310;2023-04-06T00:50:35;3.00;;;2.30;;
12385;SDS011;6257;57.634;18.310;2023-04-06T00:53:02;2.80;;;2.50;;
12385;SDS011;6257;57.634;18.310;2023-04-06T00:55:30;3.30;;;2.33;;
12385;SDS011;6257;57.634;18.310;2023-04-06T00:57:58;4.33;;;2.60;;
12385;SDS011;6257;57.634;18.310;2023-04-06T01:00:25;3.83;;;2.80;;
12385;SDS011;6257;57.634;18.310;2023-04-06T01:02:53;2.90;;;2.60;;
12385;SDS011;6257;57.634;18.310;2023-04-06T01:05:21;3.17;;;2.87;;
12385;SDS011;6257;57.634;18.310;2023-04-06T01:07:49;7.13;;;3.47;;
12385;SDS011;6257;57.634;18.310;2023-04-06T01:10:22;3.63;;;3.03;;
12385;SDS011;6257;57.634;18.310;2023-04-06T01:12:50;3.53;;;2.80;;
12385;SDS011;6257;57.634;18.310;2023-04-06T01:15:17;4.60;;;3.20;;
12385;SDS011;6257;57.634;18.310;2023-04-06T01:17:44;3.27;;;2.57;;
12385;SDS011;6257;57.634;18.310;2023-04-06T01:20:12;3.47;;;2.93;;
12385;SDS011;6257;57.634;18.310;2023-04-06T01:22:40;3.47;;;2.60;;
12385;SDS011;6257;57.634;18.310;2023-04-06T01:25:08;3.13;;;2.83;;
12385;SDS011;6257;57.634;18.310;2023-04-06T01:27:36;3.43;;;2.50;;
12385;SDS011;6257;57.634;18.310;2023-04-06T01:30:04;3.70;;;2.67;;
12385;SDS011;6257;57.634;18.310;2023-04-06T01:32:32;3.60;;;2.80;;
12385;SDS011;6257;57.634;18.310;2023-04-06T01:34:59;3.83;;;2.80;;
12385;SDS011;6257;57.634;18.310;2023-04-06T01:37:26;5.27;;;2.63;;
12385;SDS011;6257;57.634;18.310;2023-04-06T01:39:56;2.60;;;2.40;;
12385;SDS011;6257;57.634;18.310;2023-04-06T01:42:23;4.50;;;3.07;;
12385;SDS011;6257;57.634;18.310;2023-04-06T01:44:51;3.33;;;2.33;;
12385;SDS011;6257;57.634;18.310;2023-04-06T01:47:19;3.20;;;2.90;;
12385;SDS011;6257;57.634;18.310;2023-04-06T01:49:46;3.40;;;2.70;;
12385;SDS011;6257;57.634;18.310;2023-04-06T01:52:13;3.20;;;2.90;;
12385;SDS011;6257;57.634;18.310;2023-04-06T01:54:40;3.10;;;2.80;;
12385;SDS011;6257;57.634;18.310;2023-04-06T01:57:09;3.17;;;2.73;;
12385;SDS011;6257;57.634;18.310;2023-04-06T01:59:36;3.33;;;2.67;;
12385;SDS011;6257;57.634;18.310;2023-04-06T02:02:03;3.73;;;2.93;;
12385;SDS011;6257;57.634;18.310;2023-04-06T02:04:30;3.90;;;2.47;;
12385;SDS011;6257;57.634;18.310;2023-04-06T02:06:58;2.87;;;2.60;;
12385;SDS011;6257;57.634;18.310;2023-04-06T02:09:25;3.60;;;2.80;;
12385;SDS011;6257;57.634;18.310;2023-04-06T02:11:52;3.43;;;3.13;;
12385;SDS011;6257;57.634;18.310;2023-04-06T02:14:24;3.70;;;2.90;;
12385;SDS011;6257;57.634;18.310;2023-04-06T02:16:54;3.93;;;2.87;;
12385;SDS011;6257;57.634;18.310;2023-04-06T02:19:21;3.23;;;3.00;;
12385;SDS011;6257;57.634;18.310;2023-04-06T02:21:48;4.37;;;3.33;;
12385;SDS011;6257;57.634;18.310;2023-04-06T02:24:16;3.57;;;3.00;;
12385;SDS011;6257;57.634;18.310;2023-04-06T02:26:43;3.13;;;2.80;;
12385;SDS011;6257;57.634;18.310;2023-04-06T02:29:10;4.07;;;2.90;;
12385;SDS011;6257;57.634;18.310;2023-04-06T02:31:40;3.43;;;2.60;;
12385;SDS011;6257;57.634;18.310;2023-04-06T02:34:07;4.60;;;3.27;;
12385;SDS011;6257;57.634;18.310;2023-04-06T02:36:37;5.00;;;3.23;;
12385;SDS011;6257;57.634;18.310;2023-04-06T02:39:04;3.53;;;3.00;;
12385;SDS011;6257;57.634;18.310;2023-04-06T02:41:31;3.60;;;3.30;;
12385;SDS011;6257;57.634;18.310;2023-04-06T02:43:58;3.83;;;3.20;;
12385;SDS011;6257;57.634;18.310;2023-04-06T02:46:26;5.40;;;3.40;;
12385;SDS011;6257;57.634;18.310;2023-04-06T02:48:54;3.07;;;2.77;;
12385;SDS011;6257;57.634;18.310;2023-04-06T02:51:21;3.40;;;3.07;;
12385;SDS011;6257;57.634;18.310;2023-04-06T02:53:48;3.63;;;2.73;;
12385;SDS011;6257;57.634;18.310;2023-04-06T02:56:16;3.23;;;2.87;;
12385;SDS011;6257;57.634;18.310;2023-04-06T02:58:43;3.10;;;2.80;;
12385;SDS011;6257;57.634;18.310;2023-04-06T03:01:10;3.57;;;2.80;;
12385;SDS011;6257;57.634;18.310;2023-04-06T03:03:37;3.90;;;2.80;;
12385;SDS011;6257;57.634;18.310;2023-04-06T03:06:06;3.67;;;2.90;;
12385;SDS011;6257;57.634;18.310;2023-04-06T03:08:34;3.70;;;2.80;;
12385;SDS011;6257;57.634;18.310;2023-04-06T03:11:01;3.17;;;2.87;;
12385;SDS011;6257;57.634;18.310;2023-04-06T03:13:28;3.17;;;2.70;;
12385;SDS011;6257;57.634;18.310;2023-04-06T03:15:55;3.80;;;3.00;;
12385;SDS011;6257;57.634;18.310;2023-04-06T03:18:23;3.57;;;3.27;;
12385;SDS011;6257;57.634;18.310;2023-04-06T03:20:51;3.70;;;3.20;;
12385;SDS011;6257;57.634;18.310;2023-04-06T03:23:21;4.70;;;3.83;;
12385;SDS011;6257;57.634;18.310;2023-04-06T03:25:48;5.40;;;3.80;;
12385;SDS011;6257;57.634;18.310;2023-04-06T03:28:15;8.57;;;5.53;;
12385;SDS011;6257;57.634;18.310;2023-04-06T03:30:43;7.10;;;4.57;;
12385;SDS011;6257;57.634;18.310;2023-04-06T03:33:10;4.57;;;3.23;;
12385;SDS011;6257;57.634;18.310;2023-04-06T03:35:38;5.80;;;4.70;;
12385;SDS011;6257;57.634;18.310;2023-04-06T03:38:05;4.50;;;3.83;;
12385;SDS011;6257;57.634;18.310;2023-04-06T03:40:33;6.07;;;5.00;;
12385;SDS011;6257;57.634;18.310;2023-04-06T03:43:01;5.23;;;4.40;;
12385;SDS011;6257;57.634;18.310;2023-04-06T03:45:28;5.30;;;4.40;;
12385;SDS011;6257;57.634;18.310;2023-04-06T03:47:55;6.00;;;3.97;;
12385;SDS011;6257;57.634;18.310;2023-04-06T03:50:22;4.93;;;3.47;;
12385;SDS011;6257;57.634;18.310;2023-04-06T03:52:50;5.07;;;3.10;;
12385;SDS011;6257;57.634;18.310;2023-04-06T03:55:17;6.00;;;3.43;;
12385;SDS011;6257;57.634;18.310;2023-04-06T03:57:46;5.73;;;3.50;;
12385;SDS011;6257;57.634;18.310;2023-04-06T04:00:14;3.90;;;3.50;;
12385;SDS011;6257;57.634;18.310;2023-04-06T04:02:41;4.07;;;3.60;;
12385;SDS011;6257;57.634;18.310;2023-04-06T04:05:09;6.77;;;3.77;;
12385;SDS011;6257;57.634;18.310;2023-04-06T04:07:36;5.30;;;3.80;;
12385;SDS011;6257;57.634;18.310;2023-04-06T04:10:03;5.43;;;4.13;;
12385;SDS011;6257;57.634;18.310;2023-04-06T04:12:31;4.03;;;3.43;;
12385;SDS011;6257;57.634;18.310;2023-04-06T04:14:59;4.90;;;3.87;;
12385;SDS011;6257;57.634;18.310;2023-04-06T04:17:28;5.43;;;3.77;;
12385;SDS011;6257;57.634;18.310;2023-04-06T04:19:55;4.90;;;4.40;;
12385;SDS011;6257;57.634;18.310;2023-04-06T04:22:22;6.37;;;5.53;;
12385;SDS011;6257;57.634;18.310;2023-04-06T04:24:49;8.07;;;5.80;;
12385;SDS011;6257;57.634;18.310;2023-04-06T04:27:16;6.33;;;4.90;;
12385;SDS011;6257;57.634;18.310;2023-04-06T04:29:44;7.30;;;5.30;;
12385;SDS011;6257;57.634;18.310;2023-04-06T04:32:12;4.67;;;4.17;;
12385;SDS011;6257;57.634;18.310;2023-04-06T04:34:40;6.80;;;4.30;;
12385;SDS011;6257;57.634;18.310;2023-04-06T04:37:07;6.33;;;4.60;;
12385;SDS011;6257;57.634;18.310;2023-04-06T04:39:34;5.27;;;4.20;;
12385;SDS011;6257;57.634;18.310;2023-04-06T04:42:01;6.60;;;4.30;;
12385;SDS011;6257;57.634;18.310;2023-04-06T04:44:29;7.67;;;4.47;;
12385;SDS011;6257;57.634;18.310;2023-04-06T04:46:56;5.67;;;4.57;;
12385;SDS011;6257;57.634;18.310;2023-04-06T04:49:24;4.97;;;4.47;;
12385;SDS011;6257;57.634;18.310;2023-04-06T04:51:52;5.77;;;4.47;;
12385;SDS011;6257;57.634;18.310;2023-04-06T04:54:19;6.40;;;4.70;;
12385;SDS011;6257;57.634;18.310;2023-04-06T04:56:46;8.73;;;4.97;;
12385;SDS011;6257;57.634;18.310;2023-04-06T04:59:13;6.43;;;4.43;;
12385;SDS011;6257;57.634;18.310;2023-04-06T05:01:41;4.87;;;4.17;;
12385;SDS011;6257;57.634;18.310;2023-04-06T05:04:08;8.03;;;4.90;;
12385;SDS011;6257;57.634;18.310;2023-04-06T05:06:37;8.00;;;5.37;;
12385;SDS011;6257;57.634;18.310;2023-04-06T05:09:04;9.00;;;5.17;;
12385;SDS011;6257;57.634;18.310;2023-04-06T05:11:31;6.13;;;4.90;;
12385;SDS011;6257;57.634;18.310;2023-04-06T05:13:59;6.37;;;4.37;;
12385;SDS011;6257;57.634;18.310;2023-04-06T05:16:26;6.67;;;4.40;;
12385;SDS011;6257;57.634;18.310;2023-04-06T05:18:54;7.27;;;4.70;;
12385;SDS011;6257;57.634;18.310;2023-04-06T05:21:21;5.17;;;4.30;;
12385;SDS011;6257;57.634;18.310;2023-04-06T05:23:50;8.43;;;4.67;;
12385;SDS011;6257;57.634;18.310;2023-04-06T05:26:17;5.27;;;4.30;;
12385;SDS011;6257;57.634;18.310;2023-04-06T05:28:44;5.30;;;3.57;;
12385;SDS011;6257;57.634;18.310;2023-04-06T05:31:11;7.07;;;3.40;;
12385;SDS011;6257;57.634;18.310;2023-04-06T05:33:39;5.30;;;3.67;;
12385;SDS011;6257;57.634;18.310;2023-04-06T05:36:07;4.53;;;3.53;;
12385;SDS011;6257;57.634;18.310;2023-04-06T05:38:36;6.90;;;3.73;;
12385;SDS011;6257;57.634;18.310;2023-04-06T05:41:05;6.60;;;4.10;;
12385;SDS011;6257;57.634;18.310;2023-04-06T05:43:32;6.43;;;4.03;;
12385;SDS011;6257;57.634;18.310;2023-04-06T05:45:59;6.00;;;4.33;;
12385;SDS011;6257;57.634;18.310;2023-04-06T05:48:27;6.77;;;3.93;;
12385;SDS011;6257;57.634;18.310;2023-04-06T05:50:54;7.23;;;3.77;;
12385;SDS011;6257;57.634;18.310;2023-04-06T05:53:21;6.67;;;3.67;;
12385;SDS011;6257;57.634;18.310;2023-04-06T05:55:51;5.40;;;3.40;;
12385;SDS011;6257;57.634;18.310;2023-04-06T05:58:19;3.70;;;3.00;;
12385;SDS011;6257;57.634;18.310;2023-04-06T06:00:46;4.33;;;3.30;;
12385;SDS011;6257;57.634;18.310;2023-04-06T06:03:14;3.80;;;3.50;;
12385;SDS011;6257;57.634;18.310;2023-04-06T06:05:42;4.70;;;3.67;;
12385;SDS011;6257;57.634;18.310;2023-04-06T06:08:09;6.77;;;3.13;;
12385;SDS011;6257;57.634;18.310;2023-04-06T06:10:37;6.27;;;3.20;;
12385;SDS011;6257;57.634;18.310;2023-04-06T06:13:05;3.57;;;3.03;;
12385;SDS011;6257;57.634;18.310;2023-04-06T06:15:34;6.60;;;3.10;;
12385;SDS011;6257;57.634;18.310;2023-04-06T06:18:01;7.60;;;3.60;;
12385;SDS011;6257;57.634;18.310;2023-04-06T06:20:28;4.30;;;3.43;;
12385;SDS011;6257;57.634;18.310;2023-04-06T06:22:55;5.80;;;3.70;;
12385;SDS011;6257;57.634;18.310;2023-04-06T06:25:22;4.83;;;3.60;;
12385;SDS011;6257;57.634;18.310;2023-04-06T06:27:50;4.87;;;3.37;;
12385;SDS011;6257;57.634;18.310;2023-04-06T06:30:17;6.73;;;3.03;;
12385;SDS011;6257;57.634;18.310;2023-04-06T06:32:46;4.13;;;3.10;;
12385;SDS011;6257;57.634;18.310;2023-04-06T06:35:13;4.70;;;2.77;;
12385;SDS011;6257;57.634;18.310;2023-04-06T06:37:40;2.60;;;2.33;;
12385;SDS011;6257;57.634;18.310;2023-04-06T06:40:08;3.83;;;2.30;;
12385;SDS011;6257;57.634;18.310;2023-04-06T06:42:38;5.40;;;2.50;;
12385;SDS011;6257;57.634;18.310;2023-04-06T06:45:06;2.83;;;2.00;;
12385;SDS011;6257;57.634;18.310;2023-04-06T06:47:35;2.37;;;1.80;;
12385;SDS011;6257;57.634;18.310;2023-04-06T06:50:04;2.90;;;1.90;;
12385;SDS011;6257;57.634;18.310;2023-04-06T06:52:32;3.10;;;1.97;;
12385;SDS011;6257;57.634;18.310;2023-04-06T06:54:59;3.40;;;1.70;;
12385;SDS011;6257;57.634;18.310;2023-04-06T06:57:26;2.27;;;1.80;;
12385;SDS011;6257;57.634;18.310;2023-04-06T06:59:54;2.23;;;1.80;;
12385;SDS011;6257;57.634;18.310;2023-04-06T07:02:21;2.60;;;1.77;;
12385;SDS011;6257;57.634;18.310;2023-04-06T07:04:48;2.13;;;1.47;;
12385;SDS011;6257;57.634;18.310;2023-04-06T07:07:16;2.63;;;1.70;;
12385;SDS011;6257;57.634;18.310;2023-04-06T07:09:44;1.33;;;1.23;;
12385;SDS011;6257;57.634;18.310;2023-04-06T07:12:11;2.47;;;1.07;;
12385;SDS011;6257;57.634;18.310;2023-04-06T07:14:38;1.33;;;1.07;;
12385;SDS011;6257;57.634;18.310;2023-04-06T07:17:06;1.17;;;1.07;;
12385;SDS011;6257;57.634;18.310;2023-04-06T07:19:34;1.57;;;0.80;;
12385;SDS011;6257;57.634;18.310;2023-04-06T07:22:01;4.23;;;1.00;;
12385;SDS011;6257;57.634;18.310;2023-04-06T07:24:31;2.20;;;1.00;;
12385;SDS011;6257;57.634;18.310;2023-04-06T07:26:58;1.57;;;1.30;;
12385;SDS011;6257;57.634;18.310;2023-04-06T07:29:27;1.33;;;1.10;;
12385;SDS011;6257;57.634;18.310;2023-04-06T07:31:54;1.27;;;0.97;;
12385;SDS011;6257;57.634;18.310;2023-04-06T07:34:21;2.30;;;0.90;;
12385;SDS011;6257;57.634;18.310;2023-04-06T07:36:49;1.23;;;1.00;;
12385;SDS011;6257;57.634;18.310;2023-04-06T07:39:17;1.13;;;0.90;;
12385;SDS011;6257;57.634;18.310;2023-04-06T07:41:46;2.30;;;1.07;;
12385;SDS011;6257;57.634;18.310;2023-04-06T07:44:13;1.00;;;0.87;;
12385;SDS011;6257;57.634;18.310;2023-04-06T07:46:40;1.37;;;1.10;;
12385;SDS011;6257;57.634;18.310;2023-04-06T07:49:07;1.80;;;1.20;;
12385;SDS011;6257;57.634;18.310;2023-04-06T07:51:35;2.70;;;0.90;;
12385;SDS011;6257;57.634;18.310;2023-04-06T07:54:02;2.97;;;1.07;;
12385;SDS011;6257;57.634;18.310;2023-04-06T07:56:30;1.83;;;1.17;;
12385;SDS011;6257;57.634;18.310;2023-04-06T07:58:58;4.63;;;1.73;;
12385;SDS011;6257;57.634;18.310;2023-04-06T08:01:26;2.03;;;0.90;;
12385;SDS011;6257;57.634;18.310;2023-04-06T08:03:54;3.17;;;1.10;;
12385;SDS011;6257;57.634;18.310;2023-04-06T08:06:22;5.93;;;1.07;;
12385;SDS011;6257;57.634;18.310;2023-04-06T08:08:49;6.37;;;1.10;;
12385;SDS011;6257;57.634;18.310;2023-04-06T08:11:16;7.37;;;1.53;;
12385;SDS011;6257;57.634;18.310;2023-04-06T08:13:44;2.93;;;1.00;;
12385;SDS011;6257;57.634;18.310;2023-04-06T08:16:12;16.13;;;1.80;;
12385;SDS011;6257;57.634;18.310;2023-04-06T08:18:40;2.93;;;1.17;;
12385;SDS011;6257;57.634;18.310;2023-04-06T08:21:07;19.87;;;2.47;;
12385;SDS011;6257;57.634;18.310;2023-04-06T08:23:34;29.20;;;3.90;;
12385;SDS011;6257;57.634;18.310;2023-04-06T08:26:01;31.80;;;3.37;;
12385;SDS011;6257;57.634;18.310;2023-04-06T08:28:28;9.77;;;1.50;;
12385;SDS011;6257;57.634;18.310;2023-04-06T08:30:55;8.03;;;1.40;;
12385;SDS011;6257;57.634;18.310;2023-04-06T08:33:24;16.53;;;1.97;;
12385;SDS011;6257;57.634;18.310;2023-04-06T08:35:51;12.07;;;2.47;;
12385;SDS011;6257;57.634;18.310;2023-04-06T08:38:19;2.77;;;1.23;;
12385;SDS011;6257;57.634;18.310;2023-04-06T08:40:46;37.23;;;3.77;;
12385;SDS011;6257;57.634;18.310;2023-04-06T08:43:14;31.60;;;3.17;;
12385;SDS011;6257;57.634;18.310;2023-04-06T08:45:46;6.57;;;0.97;;
12385;SDS011;6257;57.634;18.310;2023-04-06T08:48:14;26.80;;;2.77;;
12385;SDS011;6257;57.634;18.310;2023-04-06T08:50:43;12.17;;;1.90;;
12385;SDS011;6257;57.634;18.310;2023-04-06T08:53:10;10.83;;;1.80;;
12385;SDS011;6257;57.634;18.310;2023-04-06T08:55:38;4.27;;;0.90;;
12385;SDS011;6257;57.634;18.310;2023-04-06T08:58:06;12.43;;;1.83;;
12385;SDS011;6257;57.634;18.310;2023-04-06T09:00:35;12.77;;;1.90;;
12385;SDS011;6257;57.634;18.310;2023-04-06T09:03:04;5.93;;;1.50;;
12385;SDS011;6257;57.634;18.310;2023-04-06T09:05:33;11.27;;;1.60;;
12385;SDS011;6257;57.634;18.310;2023-04-06T09:08:02;2.47;;;1.30;;
12385;SDS011;6257;57.634;18.310;2023-04-06T09:10:30;15.50;;;2.83;;
12385;SDS011;6257;57.634;18.310;2023-04-06T09:13:02;17.80;;;2.03;;
12385;SDS011;6257;57.634;18.310;2023-04-06T09:15:30;4.63;;;1.47;;
12385;SDS011;6257;57.634;18.310;2023-04-06T09:17:58;6.10;;;1.57;;
12385;SDS011;6257;57.634;18.310;2023-04-06T09:20:25;4.37;;;1.40;;
12385;SDS011;6257;57.634;18.310;2023-04-06T09:22:54;3.03;;;1.43;;
12385;SDS011;6257;57.634;18.310;2023-04-06T09:25:23;3.53;;;1.50;;
12385;SDS011;6257;57.634;18.310;2023-04-06T09:27:58;13.97;;;2.47;;
12385;SDS011;6257;57.634;18.310;2023-04-06T09:30:26;8.97;;;1.50;;
12385;SDS011;6257;57.634;18.310;2023-04-06T09:32:54;3.00;;;1.10;;
12385;SDS011;6257;57.634;18.310;2023-04-06T09:35:23;9.10;;;2.23;;
12385;SDS011;6257;57.634;18.310;2023-04-06T09:37:51;8.73;;;1.53;;
12385;SDS011;6257;57.634;18.310;2023-04-06T09:40:20;8.20;;;2.37;;
12385;SDS011;6257;57.634;18.310;2023-04-06T09:42:49;11.77;;;2.13;;
12385;SDS011;6257;57.634;18.310;2023-04-06T09:45:19;4.00;;;1.70;;
12385;SDS011;6257;57.634;18.310;2023-04-06T09:47:47;62.03;;;6.33;;
12385;SDS011;6257;57.634;18.310;2023-04-06T09:50:15;10.73;;;1.93;;
12385;SDS011;6257;57.634;18.310;2023-04-06T09:52:44;3.10;;;1.03;;
12385;SDS011;6257;57.634;18.310;2023-04-06T09:55:17;8.30;;;1.70;;
12385;SDS011;6257;57.634;18.310;2023-04-06T09:57:55;8.33;;;1.43;;
12385;SDS011;6257;57.634;18.310;2023-04-06T10:00:30;7.83;;;1.77;;
12385;SDS011;6257;57.634;18.310;2023-04-06T10:03:02;2.47;;;1.00;;
12385;SDS011;6257;57.634;18.310;2023-04-06T10:05:37;11.83;;;1.63;;
12385;SDS011;6257;57.634;18.310;2023-04-06T10:08:13;9.03;;;1.53;;
12385;SDS011;6257;57.634;18.310;2023-04-06T10:10:40;15.10;;;2.23;;
12385;SDS011;6257;57.634;18.310;2023-04-06T10:13:10;3.33;;;1.10;;
12385;SDS011;6257;57.634;18.310;2023-04-06T10:15:38;2.53;;;1.17;;
12385;SDS011;6257;57.634;18.310;2023-04-06T10:18:05;3.73;;;1.87;;
12385;SDS011;6257;57.634;18.310;2023-04-06T10:20:35;3.63;;;1.47;;
12385;SDS011;6257;57.634;18.310;2023-04-06T10:23:09;6.87;;;1.20;;
12385;SDS011;6257;57.634;18.310;2023-04-06T10:25:51;4.00;;;1.43;;
12385;SDS011;6257;57.634;18.310;2023-04-06T10:28:21;5.63;;;1.50;;
12385;SDS011;6257;57.634;18.310;2023-04-06T10:30:49;5.83;;;1.40;;
12385;SDS011;6257;57.634;18.310;2023-04-06T10:33:22;4.07;;;1.10;;
12385;SDS011;6257;57.634;18.310;2023-04-06T10:35:49;3.90;;;1.03;;
12385;SDS011;6257;57.634;18.310;2023-04-06T10:38:16;21.43;;;1.90;;
12385;SDS011;6257;57.634;18.310;2023-04-06T10:40:47;10.33;;;1.93;;
12385;SDS011;6257;57.634;18.310;2023-04-06T10:43:18;10.47;;;1.37;;
12385;SDS011;6257;57.634;18.310;2023-04-06T10:45:54;17.90;;;2.23;;
12385;SDS011;6257;57.634;18.310;2023-04-06T10:48:22;5.47;;;1.30;;
12385;SDS011;6257;57.634;18.310;2023-04-06T10:50:51;8.00;;;1.20;;
12385;SDS011;6257;57.634;18.310;2023-04-06T10:53:22;8.03;;;1.30;;
12385;SDS011;6257;57.634;18.310;2023-04-06T10:55:50;7.17;;;1.70;;
12385;SDS011;6257;57.634;18.310;2023-04-06T10:58:20;8.47;;;1.67;;
12385;SDS011;6257;57.634;18.310;2023-04-06T11:00:51;5.23;;;1.10;;
12385;SDS011;6257;57.634;18.310;2023-04-06T11:03:20;2.50;;;1.20;;
12385;SDS011;6257;57.634;18.310;2023-04-06T11:05:49;4.90;;;1.30;;
12385;SDS011;6257;57.634;18.310;2023-04-06T11:08:24;3.57;;;1.40;;
12385;SDS011;6257;57.634;18.310;2023-04-06T11:11:03;4.97;;;1.00;;
12385;SDS011;6257;57.634;18.310;2023-04-06T11:13:36;7.40;;;1.83;;
12385;SDS011;6257;57.634;18.310;2023-04-06T11:16:04;3.47;;;0.90;;
12385;SDS011;6257;57.634;18.310;2023-04-06T11:18:33;7.17;;;1.30;;
12385;SDS011;6257;57.634;18.310;2023-04-06T11:21:01;13.77;;;2.03;;
12385;SDS011;6257;57.634;18.310;2023-04-06T11:23:28;2.97;;;1.00;;
12385;SDS011;6257;57.634;18.310;2023-04-06T11:25:55;10.43;;;2.00;;
12385;SDS011;6257;57.634;18.310;2023-04-06T11:28:23;6.40;;;1.37;;
12385;SDS011;6257;57.634;18.310;2023-04-06T11:30:50;4.33;;;1.20;;
12385;SDS011;6257;57.634;18.310;2023-04-06T11:33:20;5.73;;;1.23;;
12385;SDS011;6257;57.634;18.310;2023-04-06T11:35:49;12.13;;;2.13;;
12385;SDS011;6257;57.634;18.310;2023-04-06T11:38:17;11.53;;;1.40;;
12385;SDS011;6257;57.634;18.310;2023-04-06T11:40:45;16.77;;;2.10;;
12385;SDS011;6257;57.634;18.310;2023-04-06T11:43:13;7.10;;;1.47;;
12385;SDS011;6257;57.634;18.310;2023-04-06T11:45:41;7.10;;;1.00;;
12385;SDS011;6257;57.634;18.310;2023-04-06T11:48:17;4.40;;;1.40;;
12385;SDS011;6257;57.634;18.310;2023-04-06T11:50:46;20.57;;;2.90;;
12385;SDS011;6257;57.634;18.310;2023-04-06T11:53:15;11.90;;;1.90;;
12385;SDS011;6257;57.634;18.310;2023-04-06T11:55:43;8.73;;;1.47;;
12385;SDS011;6257;57.634;18.310;2023-04-06T11:58:12;2.77;;;1.50;;
12385;SDS011;6257;57.634;18.310;2023-04-06T12:00:40;6.43;;;1.27;;
12385;SDS011;6257;57.634;18.310;2023-04-06T12:03:10;8.07;;;1.30;;
12385;SDS011;6257;57.634;18.310;2023-04-06T12:05:37;17.97;;;2.67;;
12385;SDS011;6257;57.634;18.310;2023-04-06T12:08:04;4.57;;;1.17;;
12385;SDS011;6257;57.634;18.310;2023-04-06T12:10:33;5.23;;;1.63;;
12385;SDS011;6257;57.634;18.310;2023-04-06T12:13:00;8.37;;;1.60;;
12385;SDS011;6257;57.634;18.310;2023-04-06T12:15:27;6.67;;;1.77;;
12385;SDS011;6257;57.634;18.310;2023-04-06T12:17:55;15.20;;;3.20;;
12385;SDS011;6257;57.634;18.310;2023-04-06T12:20:22;3.70;;;1.30;;
12385;SDS011;6257;57.634;18.310;2023-04-06T12:22:49;8.03;;;1.43;;
12385;SDS011;6257;57.634;18.310;2023-04-06T12:25:16;12.07;;;2.03;;
12385;SDS011;6257;57.634;18.310;2023-04-06T12:27:45;3.80;;;1.40;;
12385;SDS011;6257;57.634;18.310;2023-04-06T12:30:13;17.23;;;2.77;;
12385;SDS011;6257;57.634;18.310;2023-04-06T12:32:40;7.90;;;1.93;;
12385;SDS011;6257;57.634;18.310;2023-04-06T12:35:08;3.97;;;1.70;;
12385;SDS011;6257;57.634;18.310;2023-04-06T12:37:37;15.80;;;3.17;;
12385;SDS011;6257;57.634;18.310;2023-04-06T12:40:05;7.00;;;1.70;;
12385;SDS011;6257;57.634;18.310;2023-04-06T12:42:35;6.97;;;1.90;;
12385;SDS011;6257;57.634;18.310;2023-04-06T12:45:04;17.17;;;3.50;;
12385;SDS011;6257;57.634;18.310;2023-04-06T12:47:32;6.93;;;2.00;;
12385;SDS011;6257;57.634;18.310;2023-04-06T12:50:01;3.57;;;1.97;;
12385;SDS011;6257;57.634;18.310;2023-04-06T12:52:28;2.60;;;1.87;;
12385;SDS011;6257;57.634;18.310;2023-04-06T12:54:57;15.77;;;2.27;;
12385;SDS011;6257;57.634;18.310;2023-04-06T12:57:25;8.87;;;1.87;;
12385;SDS011;6257;57.634;18.310;2023-04-06T12:59:52;17.10;;;3.17;;
12385;SDS011;6257;57.634;18.310;2023-04-06T13:02:21;25.53;;;4.03;;
12385;SDS011;6257;57.634;18.310;2023-04-06T13:04:48;10.37;;;2.47;;
12385;SDS011;6257;57.634;18.310;2023-04-06T13:07:16;6.57;;;2.10;;
12385;SDS011;6257;57.634;18.310;2023-04-06T13:09:43;9.23;;;2.37;;
12385;SDS011;6257;57.634;18.310;2023-04-06T13:12:12;10.07;;;2.40;;
12385;SDS011;6257;57.634;18.310;2023-04-06T13:14:39;8.07;;;2.00;;
12385;SDS011;6257;57.634;18.310;2023-04-06T13:17:06;9.50;;;2.50;;
12385;SDS011;6257;57.634;18.310;2023-04-06T13:19:35;8.70;;;2.17;;
12385;SDS011;6257;57.634;18.310;2023-04-06T13:22:02;7.63;;;2.33;;
12385;SDS011;6257;57.634;18.310;2023-04-06T13:24:29;20.40;;;3.27;;
12385;SDS011;6257;57.634;18.310;2023-04-06T13:26:56;14.83;;;2.20;;
12385;SDS011;6257;57.634;18.310;2023-04-06T13:29:23;21.23;;;4.13;;
12385;SDS011;6257;57.634;18.310;2023-04-06T13:31:51;7.40;;;2.27;;
12385;SDS011;6257;57.634;18.310;2023-04-06T13:34:18;10.63;;;2.57;;
12385;SDS011;6257;57.634;18.310;2023-04-06T13:36:47;13.83;;;3.33;;
12385;SDS011;6257;57.634;18.310;2023-04-06T13:39:14;11.73;;;2.60;;
12385;SDS011;6257;57.634;18.310;2023-04-06T13:41:41;10.77;;;2.30;;
12385;SDS011;6257;57.634;18.310;2023-04-06T13:44:08;12.60;;;2.80;;
12385;SDS011;6257;57.634;18.310;2023-04-06T13:46:35;11.97;;;2.20;;
12385;SDS011;6257;57.634;18.310;2023-04-06T13:49:03;6.50;;;2.00;;
12385;SDS011;6257;57.634;18.310;2023-04-06T13:51:30;6.67;;;2.53;;
12385;SDS011;6257;57.634;18.310;2023-04-06T13:53:59;11.23;;;2.53;;
12385;SDS011;6257;57.634;18.310;2023-04-06T13:56:26;20.23;;;2.90;;
12385;SDS011;6257;57.634;18.310;2023-04-06T13:58:53;9.43;;;2.50;;
12385;SDS011;6257;57.634;18.310;2023-04-06T14:01:22;7.63;;;2.43;;
12385;SDS011;6257;57.634;18.310;2023-04-06T14:03:50;7.77;;;2.03;;
12385;SDS011;6257;57.634;18.310;2023-04-06T14:06:17;9.43;;;2.43;;
12385;SDS011;6257;57.634;18.310;2023-04-06T14:08:44;12.53;;;2.70;;
12385;SDS011;6257;57.634;18.310;2023-04-06T14:11:12;14.97;;;3.23;;
12385;SDS011;6257;57.634;18.310;2023-04-06T14:13:40;6.07;;;2.07;;
12385;SDS011;6257;57.634;18.310;2023-04-06T14:16:07;3.83;;;2.07;;
12385;SDS011;6257;57.634;18.310;2023-04-06T14:18:35;4.03;;;2.00;;
12385;SDS011;6257;57.634;18.310;2023-04-06T14:21:03;16.57;;;2.73;;
12385;SDS011;6257;57.634;18.310;2023-04-06T14:23:30;5.00;;;1.90;;
12385;SDS011;6257;57.634;18.310;2023-04-06T14:26:01;10.60;;;2.50;;
12385;SDS011;6257;57.634;18.310;2023-04-06T14:28:32;7.17;;;1.80;;
12385;SDS011;6257;57.634;18.310;2023-04-06T14:30:59;6.90;;;1.90;;
12385;SDS011;6257;57.634;18.310;2023-04-06T14:33:28;3.33;;;1.80;;
12385;SDS011;6257;57.634;18.310;2023-04-06T14:35:56;11.73;;;1.90;;
12385;SDS011;6257;57.634;18.310;2023-04-06T14:38:23;7.10;;;2.10;;
12385;SDS011;6257;57.634;18.310;2023-04-06T14:40:50;10.70;;;2.10;;
12385;SDS011;6257;57.634;18.310;2023-04-06T14:43:17;8.10;;;1.90;;
12385;SDS011;6257;57.634;18.310;2023-04-06T14:45:46;7.17;;;2.13;;
12385;SDS011;6257;57.634;18.310;2023-04-06T14:48:13;5.33;;;2.13;;
12385;SDS011;6257;57.634;18.310;2023-04-06T14:50:51;5.77;;;1.90;;